Brevard, NC (28712)

2:40 PM EDT on August 31, 2015 (GMT -0400)
Near Cedar Mountain | | Change Station
CLOSE
Current Station
Personal Weather Station
Location: Brevard, NC
Elevation: 3215 ft
Nearby Weather Stations

Elev 3215 ft 35.13 °N, 82.72 °W | Updated 36 seconds ago

Partly Cloudy
Partly Cloudy
76.0 °F
Feels Like 78 °F
N
0.0
Wind Variable Wind from NE
Gusts 0.0 mph

Today
High -- | Low -- °F
--% Chance of Precip.
Yesterday
High -- | Low -- °F
Precip. -- in
7:02 AM 7:59 PM
Waning Gibbous, 94% visible
Pressure 30.10 in
Visibility 10.0 miles
Clouds Scattered Clouds 4000 ft
Heat Index 78 °F
Dew Point 61 °F
Humidity 60%
Rainfall in
Snow Depth Not available.
UV 8 out of 12
Pollen 8.40 out of 12
Air Quality Not available.
Flu Activity Not available.
METAR KAVL 311754Z 34006KT 10SM SCT040 27/15 A3017 RMK AO2 SLP191 T02720150 10272 20167 58011
Pressure 30.10 in
Visibility 10.0 miles
Clouds Scattered Clouds 4000 ft
Heat Index 78 °F
Dew Point 61 °F
Humidity 60%
Rainfall in
Snow Depth Not available.
UV 8 out of 12
Pollen 8.40 out of 12
Air Quality Not available.
Flu Activity Not available.
METAR KAVL 311754Z 34006KT 10SM SCT040 27/15 A3017 RMK AO2 SLP191 T02720150 10272 20167 58011

10-Day Weather Forecast

×

Almanac

Astronomy

Aug. 31, 2015 Rise Set
Actual Time
Civil Twilight
Nautical Twilight
Astronomical Twilight
Moon
Length of Visible Light
Length of Day
Tomorrow will be .
, % of the Moon is Illuminated

Today's Extremes

State Highs State Lows

Community

WunderPhotos

Upload Photos

1,851,334 photos uploaded!

WunderBlogs® & News

Nearby

Air Quality

  Air Quality AQ Index Pollutant
Not available.

Snow Depth

Station Depth Elevation

Earthquake Activity

City Distance Mag. Time & Date
Minimum magnitude displayed is 2.5.

Coastal Water Temperatures

Place Temperature

Stations

Nearby Weather Stations

Station Location Temp. Windchill Dew Point Humidity Wind Precip. Elev Updated Type